x

Ilm2 - 5 Miles Se Of Wrightsville Beach, Nc (41038) Weather Station

3:08pm - Fri 26th Aug 2016 All times are EDT. -4 hours from GMT.

  • Wind
    7mph, 9mph gusts
  • Sea Temp 84°f
  • 空気 Temp 83°f
  • Sea Pressure 1019.6mb
  • Ilm2 - 5 Miles Se Of Wrightsville Beach, Nc
  • Ilm2 - 5 Miles Se Of Wrightsville Beach, Nc

More Historic Weather Station data

Upgrade to MSW Pro to gain access to the past 30 days of data for over 8000 Wavebouys and Weather Stations around the globe.

Join Pro

Comparision Forecast

View Surf forecast
   
Fri 08/26 3:08pm 7 9 mph 1019.6mb 84f 83f
2:08pm 7 9 mph 1020.3mb 84f 83f
1:08pm 4 7 mph 1020.5mb 83f 82f
12:08pm 2 7 mph 1020.9mb 83f 83f
11:08am 2 4 mph 1021.1mb 83f 82f
10:08am 2 4 mph 1020.9mb 83f 82f
9:08am 2 7 mph 1020.7mb 83f 81f
8:08am 2 7 mph 1020.7mb 82f 81f
6:08am 4 7 mph 1020mb 83f 80f
5:08am 2 4 mph 1019.6mb 83f 81f
4:08am 2 4 mph 1019.7mb 83f 81f
3:08am 4 9 mph 1019.8mb 83f 81f
2:08am 4 9 mph 1019.7mb 83f 81f
1:08am 7 9 mph 1019.8mb 83f 82f
12:08am 7 9 mph 1019.9mb 83f 82f
Thu 08/25 11:08pm 7 11 mph 1019.9mb 83f 82f
10:08pm 7 11 mph 1020.1mb 83f 82f
9:08pm 9 13 mph 1020.2mb 83f 82f
8:08pm 7 9 mph 1020mb 83f 82f
6:08pm 9 11 mph 1019.7mb 83f 83f
5:08pm 11 13 mph 1019.9mb 83f 83f
4:08pm 11 16 mph 1020.1mb 83f 82f
3:08pm 11 16 mph 1020.7mb 83f 82f
2:08pm 11 16 mph 1021.4mb 83f 82f
1:08pm 9 13 mph 1022mb 83f 82f
12:08pm 7 11 mph 1022.7mb 83f 82f
11:08am 9 13 mph 1022.9mb 82f 82f
10:08am 9 16 mph 1022.7mb 82f 81f
9:08am 11 13 mph 1022.5mb 82f 80f
8:08am 9 11 mph 1022mb 82f 80f
7:08am 7 11 mph 1021.7mb 82f 81f
6:08am 7 11 mph 1021.4mb 82f 81f
5:08am 9 13 mph 1021mb 82f 81f
4:08am 11 16 mph 1021.2mb 83f 81f
3:08am 11 16 mph 1021.3mb 83f 82f
2:08am 9 11 mph 1021.8mb 83f 82f
1:08am 13 18 mph 1022.1mb 83f 82f
12:08am 11 18 mph 1022.7mb 83f 81f
Wed 08/24 11:08pm 13 18 mph 1023mb 83f 81f
10:08pm 13 20 mph 1023.4mb 83f 81f
9:08pm 13 18 mph 1023mb 83f 81f
8:08pm 9 11 mph 1023mb 83f 81f
7:08pm 9 11 mph 1023mb 83f 82f
6:08pm 7 11 mph 1023.1mb 83f 82f
5:08pm 11 16 mph 1023.2mb 83f 81f
4:08pm 11 16 mph 1023.5mb 83f 81f
3:08pm 13 18 mph 1024.1mb 83f 80f
2:08pm 13 18 mph 1024.8mb 83f 80f
1:08pm 11 16 mph 1025.2mb 83f 80f
12:08pm 11 16 mph 1025.9mb 83f 79f
11:08am 13 18 mph 1026.2mb 83f 77f
10:08am 16 20 mph 1026mb 83f 77f
9:08am 16 20 mph 1025.8mb 83f 77f
8:08am 16 20 mph 1025.6mb 83f 77f
7:08am 13 20 mph 1025.1mb 83f 77f
6:08am 13 20 mph 1024.8mb 83f 78f
5:08am 18 22 mph 1024.2mb 83f 80f
4:08am 16 20 mph 1024.3mb 83f 80f
3:08am 16 22 mph 1024.5mb 83f 80f
2:08am 16 22 mph 1024.9mb 83f 80f
1:08am 18 22 mph 1025mb 83f 80f
12:08am 18 25 mph 1025.2mb 83f 81f
Tue 08/23 11:08pm 18 25 mph 1025mb 83f 81f
10:08pm 18 22 mph 1025.2mb 83f 81f
9:08pm 16 20 mph 1024.9mb 83f 82f
8:08pm 16 22 mph 1024.6mb 83f 82f
7:08pm 16 20 mph 1024.4mb 83f 82f
6:08pm 13 20 mph 1024.1mb 84f 83f
5:08pm 11 16 mph 1024.1mb 84f 83f
4:08pm 11 18 mph 1024.6mb 84f 83f
3:08pm 13 18 mph 1025.1mb 84f 83f
2:08pm 13 18 mph 1025.9mb 84f 83f
1:08pm 13 20 mph 1026.1mb 83f 83f
12:08pm 13 18 mph 1026.2mb 83f 83f
11:08am 13 18 mph 1026.3mb 83f 83f
10:08am 11 18 mph 1025.7mb 83f 83f
9:08am 11 16 mph 1025.3mb 83f 83f
8:08am 11 16 mph 1025mb 83f 83f
7:08am 9 13 mph 1024.6mb 83f 83f
6:08am 9 13 mph 1023.9mb 83f 83f
5:08am 11 16 mph 1023.3mb 83f 82f
4:08am 9 13 mph 1022.9mb 83f 82f
3:08am 9 11 mph 1022.9mb 84f 82f
2:08am 7 11 mph 1022.6mb 84f 82f
1:08am 7 9 mph 1022.5mb 84f 83f
12:08am 7 9 mph 1022.2mb 84f 82f
Mon 08/22 11:08pm 4 9 mph 1022.3mb 84f 83f
10:08pm 4 7 mph 1022.1mb 84f 83f
9:08pm 4 7 mph 1021.6mb 84f 83f
8:08pm 4 9 mph 1020.6mb 84f 83f